Weather at Nain Baru Airstrip

Public forecast

Using degrees Celsius for public forecast. Weather courtesy of forecast.io.

Closest aviation weather report (METAR) to Nain Baru Airstrip

Closest report is Bintulu Airport, 172.7 nm (319.8 km) NW.

2024/05/20 18:00 (retrieved 30 minutes ago)

WBGB 201800Z VRB03KT 9999 FEW016 26/26 Q1008

Closest aviation forecast (TAF) to Nain Baru Airstrip

Closest forecast is Aji Pangeran Tumenggung Pranoto International Airport, 157.2 nm (291.2 km) SE.

2024/05/20 18:00 (retrieved 30 minutes ago)

TAF WALS 201700Z 2018/2106 36001KT 9999 FEW020